sensor_id;sensor_type;location;lat;lon;timestamp;temperature;humidity
21592;DHT22;10958;50.892;3.992;2023-10-09T00:02:24;17.90;99.90
21592;DHT22;10958;50.892;3.992;2023-10-09T00:04:50;17.90;99.90
21592;DHT22;10958;50.892;3.992;2023-10-09T00:07:17;17.80;99.90
21592;DHT22;10958;50.892;3.992;2023-10-09T00:09:43;17.80;99.90
21592;DHT22;10958;50.892;3.992;2023-10-09T00:12:19;17.90;99.90
21592;DHT22;10958;50.892;3.992;2023-10-09T00:14:48;17.70;99.90
21592;DHT22;10958;50.892;3.992;2023-10-09T00:17:17;17.80;99.90
21592;DHT22;10958;50.892;3.992;2023-10-09T00:19:49;17.60;99.90
21592;DHT22;10958;50.892;3.992;2023-10-09T00:22:17;17.70;99.90
21592;DHT22;10958;50.892;3.992;2023-10-09T00:24:46;17.70;99.90
21592;DHT22;10958;50.892;3.992;2023-10-09T00:27:15;17.40;99.90
21592;DHT22;10958;50.892;3.992;2023-10-09T00:29:45;17.40;99.90
21592;DHT22;10958;50.892;3.992;2023-10-09T00:32:14;17.40;99.90
21592;DHT22;10958;50.892;3.992;2023-10-09T00:34:59;17.50;99.90
21592;DHT22;10958;50.892;3.992;2023-10-09T00:37:44;17.60;99.90
21592;DHT22;10958;50.892;3.992;2023-10-09T00:40:11;17.70;99.90
21592;DHT22;10958;50.892;3.992;2023-10-09T00:42:46;17.80;99.90
21592;DHT22;10958;50.892;3.992;2023-10-09T00:45:20;17.80;99.90
21592;DHT22;10958;50.892;3.992;2023-10-09T00:47:58;17.80;99.90
21592;DHT22;10958;50.892;3.992;2023-10-09T00:50:27;17.80;99.90
21592;DHT22;10958;50.892;3.992;2023-10-09T00:53:00;17.90;99.90
21592;DHT22;10958;50.892;3.992;2023-10-09T00:55:36;17.90;99.90
21592;DHT22;10958;50.892;3.992;2023-10-09T00:58:06;17.90;99.90
21592;DHT22;10958;50.892;3.992;2023-10-09T01:00:38;18.00;99.90
21592;DHT22;10958;50.892;3.992;2023-10-09T01:03:11;18.00;99.90
21592;DHT22;10958;50.892;3.992;2023-10-09T01:05:45;18.00;99.90
21592;DHT22;10958;50.892;3.992;2023-10-09T01:08:21;17.90;99.90
21592;DHT22;10958;50.892;3.992;2023-10-09T01:11:02;17.90;99.90
21592;DHT22;10958;50.892;3.992;2023-10-09T01:13:44;17.80;99.90
21592;DHT22;10958;50.892;3.992;2023-10-09T01:16:17;17.80;99.90
21592;DHT22;10958;50.892;3.992;2023-10-09T01:18:44;17.80;99.90
21592;DHT22;10958;50.892;3.992;2023-10-09T01:21:11;17.70;99.90
21592;DHT22;10958;50.892;3.992;2023-10-09T01:23:44;17.80;99.90
21592;DHT22;10958;50.892;3.992;2023-10-09T01:26:51;17.70;99.90
21592;DHT22;10958;50.892;3.992;2023-10-09T01:29:23;17.70;99.90
21592;DHT22;10958;50.892;3.992;2023-10-09T01:31:57;17.80;99.90
21592;DHT22;10958;50.892;3.992;2023-10-09T01:34:23;18.00;99.90
21592;DHT22;10958;50.892;3.992;2023-10-09T01:36:51;17.80;99.90
21592;DHT22;10958;50.892;3.992;2023-10-09T01:39:19;17.90;99.90
21592;DHT22;10958;50.892;3.992;2023-10-09T01:42:05;18.00;99.90
21592;DHT22;10958;50.892;3.992;2023-10-09T01:44:34;17.80;99.90
21592;DHT22;10958;50.892;3.992;2023-10-09T01:47:06;17.70;99.90
21592;DHT22;10958;50.892;3.992;2023-10-09T01:49:35;17.70;99.90
21592;DHT22;10958;50.892;3.992;2023-10-09T01:52:03;17.60;99.90
21592;DHT22;10958;50.892;3.992;2023-10-09T01:54:38;17.70;99.90
21592;DHT22;10958;50.892;3.992;2023-10-09T01:57:10;17.70;99.90
21592;DHT22;10958;50.892;3.992;2023-10-09T01:59:40;17.70;99.90
21592;DHT22;10958;50.892;3.992;2023-10-09T02:02:23;17.80;99.90
21592;DHT22;10958;50.892;3.992;2023-10-09T02:05:03;17.80;99.90
21592;DHT22;10958;50.892;3.992;2023-10-09T02:07:38;17.50;99.90
21592;DHT22;10958;50.892;3.992;2023-10-09T02:10:28;17.60;99.90
21592;DHT22;10958;50.892;3.992;2023-10-09T02:13:01;17.60;99.90
21592;DHT22;10958;50.892;3.992;2023-10-09T02:15:42;17.80;99.90
21592;DHT22;10958;50.892;3.992;2023-10-09T02:18:09;17.70;99.90
21592;DHT22;10958;50.892;3.992;2023-10-09T02:21:05;17.60;99.90
21592;DHT22;10958;50.892;3.992;2023-10-09T02:23:32;17.50;99.90
21592;DHT22;10958;50.892;3.992;2023-10-09T02:26:18;17.70;99.90
21592;DHT22;10958;50.892;3.992;2023-10-09T02:29:04;17.80;99.90
21592;DHT22;10958;50.892;3.992;2023-10-09T02:31:43;17.60;99.90
21592;DHT22;10958;50.892;3.992;2023-10-09T02:34:13;17.70;99.90
21592;DHT22;10958;50.892;3.992;2023-10-09T02:36:41;17.60;99.90
21592;DHT22;10958;50.892;3.992;2023-10-09T02:39:08;17.70;99.90
21592;DHT22;10958;50.892;3.992;2023-10-09T02:41:52;17.60;99.90
21592;DHT22;10958;50.892;3.992;2023-10-09T02:44:23;17.60;99.90
21592;DHT22;10958;50.892;3.992;2023-10-09T02:46:52;17.40;99.90
21592;DHT22;10958;50.892;3.992;2023-10-09T02:49:24;17.40;99.90
21592;DHT22;10958;50.892;3.992;2023-10-09T02:51:50;17.30;99.90
21592;DHT22;10958;50.892;3.992;2023-10-09T02:54:19;17.40;99.90
21592;DHT22;10958;50.892;3.992;2023-10-09T02:57:00;17.40;99.90
21592;DHT22;10958;50.892;3.992;2023-10-09T02:59:54;17.30;99.90
21592;DHT22;10958;50.892;3.992;2023-10-09T03:02:20;17.40;99.90
21592;DHT22;10958;50.892;3.992;2023-10-09T03:04:50;17.30;99.90
21592;DHT22;10958;50.892;3.992;2023-10-09T03:07:20;17.40;99.90
21592;DHT22;10958;50.892;3.992;2023-10-09T03:09:49;17.30;99.90
21592;DHT22;10958;50.892;3.992;2023-10-09T03:12:17;17.20;99.90
21592;DHT22;10958;50.892;3.992;2023-10-09T03:14:44;17.20;99.90
21592;DHT22;10958;50.892;3.992;2023-10-09T03:17:10;17.20;99.90
21592;DHT22;10958;50.892;3.992;2023-10-09T03:19:39;17.30;99.90
21592;DHT22;10958;50.892;3.992;2023-10-09T03:22:06;17.30;99.90
21592;DHT22;10958;50.892;3.992;2023-10-09T03:24:36;17.10;99.90
21592;DHT22;10958;50.892;3.992;2023-10-09T03:27:02;17.10;99.90
21592;DHT22;10958;50.892;3.992;2023-10-09T03:29:28;17.00;99.90
21592;DHT22;10958;50.892;3.992;2023-10-09T03:31:54;17.10;99.90
21592;DHT22;10958;50.892;3.992;2023-10-09T03:34:24;16.90;99.90
21592;DHT22;10958;50.892;3.992;2023-10-09T03:36:50;16.80;99.90
21592;DHT22;10958;50.892;3.992;2023-10-09T03:39:32;16.80;99.90
21592;DHT22;10958;50.892;3.992;2023-10-09T03:42:16;16.80;99.90
21592;DHT22;10958;50.892;3.992;2023-10-09T03:44:45;16.70;99.90
21592;DHT22;10958;50.892;3.992;2023-10-09T03:47:17;16.80;99.90
21592;DHT22;10958;50.892;3.992;2023-10-09T03:49:53;16.80;99.90
21592;DHT22;10958;50.892;3.992;2023-10-09T03:52:19;16.90;99.90
21592;DHT22;10958;50.892;3.992;2023-10-09T03:54:47;16.90;99.90
21592;DHT22;10958;50.892;3.992;2023-10-09T03:57:17;17.10;99.90
21592;DHT22;10958;50.892;3.992;2023-10-09T03:59:46;17.10;99.90
21592;DHT22;10958;50.892;3.992;2023-10-09T04:02:13;17.20;99.90
21592;DHT22;10958;50.892;3.992;2023-10-09T04:04:42;17.00;99.90
21592;DHT22;10958;50.892;3.992;2023-10-09T04:07:15;17.10;99.90
21592;DHT22;10958;50.892;3.992;2023-10-09T04:09:44;16.90;99.90
21592;DHT22;10958;50.892;3.992;2023-10-09T04:12:38;17.00;99.90
21592;DHT22;10958;50.892;3.992;2023-10-09T04:15:05;17.10;99.90
21592;DHT22;10958;50.892;3.992;2023-10-09T04:17:35;17.20;99.90
21592;DHT22;10958;50.892;3.992;2023-10-09T04:20:08;17.10;99.90
21592;DHT22;10958;50.892;3.992;2023-10-09T04:22:46;17.10;99.90
21592;DHT22;10958;50.892;3.992;2023-10-09T04:25:38;17.20;99.90
21592;DHT22;10958;50.892;3.992;2023-10-09T04:28:16;17.00;99.90
21592;DHT22;10958;50.892;3.992;2023-10-09T04:30:45;17.10;99.90
21592;DHT22;10958;50.892;3.992;2023-10-09T04:33:21;17.00;99.90
21592;DHT22;10958;50.892;3.992;2023-10-09T04:36:05;17.10;99.90
21592;DHT22;10958;50.892;3.992;2023-10-09T04:38:54;17.00;99.90
21592;DHT22;10958;50.892;3.992;2023-10-09T04:41:31;17.00;99.90
21592;DHT22;10958;50.892;3.992;2023-10-09T04:44:21;17.10;99.90
21592;DHT22;10958;50.892;3.992;2023-10-09T04:46:50;17.00;99.90
21592;DHT22;10958;50.892;3.992;2023-10-09T04:49:38;17.10;99.90
21592;DHT22;10958;50.892;3.992;2023-10-09T04:52:19;17.20;99.90
21592;DHT22;10958;50.892;3.992;2023-10-09T04:54:51;17.10;99.90
21592;DHT22;10958;50.892;3.992;2023-10-09T04:57:45;17.00;99.90
21592;DHT22;10958;50.892;3.992;2023-10-09T05:00:26;16.80;99.90
21592;DHT22;10958;50.892;3.992;2023-10-09T05:02:58;16.70;99.90
21592;DHT22;10958;50.892;3.992;2023-10-09T05:05:30;16.80;99.90
21592;DHT22;10958;50.892;3.992;2023-10-09T05:08:09;16.80;99.90
21592;DHT22;10958;50.892;3.992;2023-10-09T05:11:00;16.80;99.90
21592;DHT22;10958;50.892;3.992;2023-10-09T05:13:26;16.80;99.90
21592;DHT22;10958;50.892;3.992;2023-10-09T05:16:11;16.70;99.90
21592;DHT22;10958;50.892;3.992;2023-10-09T05:18:55;16.70;99.90
21592;DHT22;10958;50.892;3.992;2023-10-09T05:21:26;16.60;99.90
21592;DHT22;10958;50.892;3.992;2023-10-09T05:24:00;16.80;99.90
21592;DHT22;10958;50.892;3.992;2023-10-09T05:26:43;16.70;99.90
21592;DHT22;10958;50.892;3.992;2023-10-09T05:29:24;16.70;99.90
21592;DHT22;10958;50.892;3.992;2023-10-09T05:32:06;16.70;99.90
21592;DHT22;10958;50.892;3.992;2023-10-09T05:34:38;16.80;99.90
21592;DHT22;10958;50.892;3.992;2023-10-09T05:37:23;16.90;99.90
21592;DHT22;10958;50.892;3.992;2023-10-09T05:39:52;16.90;99.90
21592;DHT22;10958;50.892;3.992;2023-10-09T05:42:27;16.90;99.90
21592;DHT22;10958;50.892;3.992;2023-10-09T05:45:16;16.90;99.90
21592;DHT22;10958;50.892;3.992;2023-10-09T05:47:50;16.90;99.90
21592;DHT22;10958;50.892;3.992;2023-10-09T05:50:31;16.80;99.90
21592;DHT22;10958;50.892;3.992;2023-10-09T05:53:03;16.70;99.90
21592;DHT22;10958;50.892;3.992;2023-10-09T05:55:35;16.70;99.90
21592;DHT22;10958;50.892;3.992;2023-10-09T05:58:20;16.60;99.90
21592;DHT22;10958;50.892;3.992;2023-10-09T06:01:04;16.40;99.90
21592;DHT22;10958;50.892;3.992;2023-10-09T06:03:49;16.30;99.90
21592;DHT22;10958;50.892;3.992;2023-10-09T06:06:22;16.10;99.90
21592;DHT22;10958;50.892;3.992;2023-10-09T06:09:12;16.00;99.90
21592;DHT22;10958;50.892;3.992;2023-10-09T06:11:42;16.10;99.90
21592;DHT22;10958;50.892;3.992;2023-10-09T06:14:18;16.30;99.90
21592;DHT22;10958;50.892;3.992;2023-10-09T06:16:57;16.40;99.90
21592;DHT22;10958;50.892;3.992;2023-10-09T06:19:27;16.40;99.90
21592;DHT22;10958;50.892;3.992;2023-10-09T06:21:59;16.60;99.90
21592;DHT22;10958;50.892;3.992;2023-10-09T06:24:25;16.50;99.90
21592;DHT22;10958;50.892;3.992;2023-10-09T06:26:59;16.50;99.90
21592;DHT22;10958;50.892;3.992;2023-10-09T06:29:28;16.50;99.90
21592;DHT22;10958;50.892;3.992;2023-10-09T06:32:11;16.70;99.90
21592;DHT22;10958;50.892;3.992;2023-10-09T06:35:05;16.40;99.90
21592;DHT22;10958;50.892;3.992;2023-10-09T06:37:57;16.40;99.90
21592;DHT22;10958;50.892;3.992;2023-10-09T06:40:38;16.40;99.90
21592;DHT22;10958;50.892;3.992;2023-10-09T06:43:04;16.30;99.90
21592;DHT22;10958;50.892;3.992;2023-10-09T06:45:40;16.30;99.90
21592;DHT22;10958;50.892;3.992;2023-10-09T06:48:10;16.30;99.90
21592;DHT22;10958;50.892;3.992;2023-10-09T06:50:55;16.40;99.90
21592;DHT22;10958;50.892;3.992;2023-10-09T06:53:26;16.50;99.90
21592;DHT22;10958;50.892;3.992;2023-10-09T06:56:12;16.60;99.90
21592;DHT22;10958;50.892;3.992;2023-10-09T06:58:51;16.60;99.90
21592;DHT22;10958;50.892;3.992;2023-10-09T07:01:23;16.70;99.90
21592;DHT22;10958;50.892;3.992;2023-10-09T07:04:10;16.90;99.90
21592;DHT22;10958;50.892;3.992;2023-10-09T07:06:47;17.00;99.90
21592;DHT22;10958;50.892;3.992;2023-10-09T07:09:15;17.00;99.90
21592;DHT22;10958;50.892;3.992;2023-10-09T07:11:43;17.10;99.90
21592;DHT22;10958;50.892;3.992;2023-10-09T07:14:20;17.10;99.90
21592;DHT22;10958;50.892;3.992;2023-10-09T07:17:08;17.10;99.90
21592;DHT22;10958;50.892;3.992;2023-10-09T07:20:12;17.10;99.90
21592;DHT22;10958;50.892;3.992;2023-10-09T07:23:01;17.00;99.90
21592;DHT22;10958;50.892;3.992;2023-10-09T07:25:50;16.90;99.90
21592;DHT22;10958;50.892;3.992;2023-10-09T07:28:22;17.20;99.90
21592;DHT22;10958;50.892;3.992;2023-10-09T07:31:18;17.30;99.90
21592;DHT22;10958;50.892;3.992;2023-10-09T07:33:52;17.60;99.90
21592;DHT22;10958;50.892;3.992;2023-10-09T07:36:25;17.90;99.90
21592;DHT22;10958;50.892;3.992;2023-10-09T07:39:05;18.20;99.90
21592;DHT22;10958;50.892;3.992;2023-10-09T07:41:39;18.70;99.90
21592;DHT22;10958;50.892;3.992;2023-10-09T07:44:10;19.10;99.90
21592;DHT22;10958;50.892;3.992;2023-10-09T07:46:45;19.40;99.90
21592;DHT22;10958;50.892;3.992;2023-10-09T07:49:39;19.90;99.90
21592;DHT22;10958;50.892;3.992;2023-10-09T07:52:08;20.30;99.90
21592;DHT22;10958;50.892;3.992;2023-10-09T07:54:34;20.50;99.90
21592;DHT22;10958;50.892;3.992;2023-10-09T07:57:01;20.40;99.90
21592;DHT22;10958;50.892;3.992;2023-10-09T07:59:42;20.10;99.90
21592;DHT22;10958;50.892;3.992;2023-10-09T08:02:21;19.90;99.90
21592;DHT22;10958;50.892;3.992;2023-10-09T08:05:01;19.50;99.90
21592;DHT22;10958;50.892;3.992;2023-10-09T08:07:45;19.30;99.90
21592;DHT22;10958;50.892;3.992;2023-10-09T08:10:20;19.20;99.90
21592;DHT22;10958;50.892;3.992;2023-10-09T08:12:46;19.10;99.90
21592;DHT22;10958;50.892;3.992;2023-10-09T08:15:16;19.20;99.90
21592;DHT22;10958;50.892;3.992;2023-10-09T08:17:49;19.30;99.90
21592;DHT22;10958;50.892;3.992;2023-10-09T08:20:41;19.30;99.90
21592;DHT22;10958;50.892;3.992;2023-10-09T08:23:28;19.40;99.90
21592;DHT22;10958;50.892;3.992;2023-10-09T08:26:15;19.40;99.90
21592;DHT22;10958;50.892;3.992;2023-10-09T08:28:56;19.60;99.90
21592;DHT22;10958;50.892;3.992;2023-10-09T08:31:43;19.70;99.90
21592;DHT22;10958;50.892;3.992;2023-10-09T08:34:22;19.50;99.90
21592;DHT22;10958;50.892;3.992;2023-10-09T08:36:52;19.40;99.90
21592;DHT22;10958;50.892;3.992;2023-10-09T08:39:21;19.40;99.90
21592;DHT22;10958;50.892;3.992;2023-10-09T08:41:59;19.50;99.90
21592;DHT22;10958;50.892;3.992;2023-10-09T08:44:27;19.40;99.90
21592;DHT22;10958;50.892;3.992;2023-10-09T08:46:55;19.30;99.90
21592;DHT22;10958;50.892;3.992;2023-10-09T08:49:26;19.30;99.90
21592;DHT22;10958;50.892;3.992;2023-10-09T08:51:53;19.10;99.90
21592;DHT22;10958;50.892;3.992;2023-10-09T08:54:19;19.20;99.90
21592;DHT22;10958;50.892;3.992;2023-10-09T08:56:46;19.50;99.90
21592;DHT22;10958;50.892;3.992;2023-10-09T08:59:20;19.60;99.90
21592;DHT22;10958;50.892;3.992;2023-10-09T09:01:50;19.40;99.90
21592;DHT22;10958;50.892;3.992;2023-10-09T09:04:40;19.40;99.90
21592;DHT22;10958;50.892;3.992;2023-10-09T09:07:25;19.50;99.90
21592;DHT22;10958;50.892;3.992;2023-10-09T09:10:04;19.40;99.90
21592;DHT22;10958;50.892;3.992;2023-10-09T09:12:50;19.50;99.90
21592;DHT22;10958;50.892;3.992;2023-10-09T09:15:32;19.50;99.90
21592;DHT22;10958;50.892;3.992;2023-10-09T09:18:08;19.70;99.90
21592;DHT22;10958;50.892;3.992;2023-10-09T09:20:37;20.00;99.90
21592;DHT22;10958;50.892;3.992;2023-10-09T09:23:10;20.20;99.90
21592;DHT22;10958;50.892;3.992;2023-10-09T09:25:45;20.40;99.90
21592;DHT22;10958;50.892;3.992;2023-10-09T09:28:14;20.40;99.90
21592;DHT22;10958;50.892;3.992;2023-10-09T09:30:50;20.30;99.90
21592;DHT22;10958;50.892;3.992;2023-10-09T09:33:24;20.30;99.90
21592;DHT22;10958;50.892;3.992;2023-10-09T09:36:06;20.40;99.90
21592;DHT22;10958;50.892;3.992;2023-10-09T09:38:35;20.20;99.90
21592;DHT22;10958;50.892;3.992;2023-10-09T09:41:14;20.40;99.90
21592;DHT22;10958;50.892;3.992;2023-10-09T09:43:56;20.50;99.90
21592;DHT22;10958;50.892;3.992;2023-10-09T09:46:34;20.30;99.90
21592;DHT22;10958;50.892;3.992;2023-10-09T09:49:01;20.30;99.90
21592;DHT22;10958;50.892;3.992;2023-10-09T09:51:30;20.20;99.90
21592;DHT22;10958;50.892;3.992;2023-10-09T09:53:59;20.50;99.90
21592;DHT22;10958;50.892;3.992;2023-10-09T09:56:29;20.60;99.90
21592;DHT22;10958;50.892;3.992;2023-10-09T09:58:59;20.50;99.90
21592;DHT22;10958;50.892;3.992;2023-10-09T10:03:38;20.40;99.90
21592;DHT22;10958;50.892;3.992;2023-10-09T10:06:09;20.50;99.90
21592;DHT22;10958;50.892;3.992;2023-10-09T10:08:37;20.60;99.90
21592;DHT22;10958;50.892;3.992;2023-10-09T10:11:05;20.80;99.90
21592;DHT22;10958;50.892;3.992;2023-10-09T10:16:12;20.80;99.90
21592;DHT22;10958;50.892;3.992;2023-10-09T10:19:05;20.90;99.90
21592;DHT22;10958;50.892;3.992;2023-10-09T10:21:37;21.20;99.90
21592;DHT22;10958;50.892;3.992;2023-10-09T10:32:55;21.40;99.90
21592;DHT22;10958;50.892;3.992;2023-10-09T10:35:35;21.40;99.90
21592;DHT22;10958;50.892;3.992;2023-10-09T10:38:25;21.70;99.90
21592;DHT22;10958;50.892;3.992;2023-10-09T10:41:08;21.70;99.90
21592;DHT22;10958;50.892;3.992;2023-10-09T10:43:45;21.80;99.90
21592;DHT22;10958;50.892;3.992;2023-10-09T10:46:23;21.80;99.90
21592;DHT22;10958;50.892;3.992;2023-10-09T10:48:59;21.70;99.90
21592;DHT22;10958;50.892;3.992;2023-10-09T10:51:34;21.80;99.90
21592;DHT22;10958;50.892;3.992;2023-10-09T10:54:06;21.90;99.90
21592;DHT22;10958;50.892;3.992;2023-10-09T10:56:58;21.90;99.90
21592;DHT22;10958;50.892;3.992;2023-10-09T10:59:39;21.70;99.90
21592;DHT22;10958;50.892;3.992;2023-10-09T11:02:18;21.60;99.90
21592;DHT22;10958;50.892;3.992;2023-10-09T11:04:53;21.80;99.90
21592;DHT22;10958;50.892;3.992;2023-10-09T11:07:39;21.80;99.90
21592;DHT22;10958;50.892;3.992;2023-10-09T11:10:09;21.80;99.90
21592;DHT22;10958;50.892;3.992;2023-10-09T11:12:52;21.90;99.90
21592;DHT22;10958;50.892;3.992;2023-10-09T11:15:41;21.90;99.90
21592;DHT22;10958;50.892;3.992;2023-10-09T11:18:11;22.00;99.90
21592;DHT22;10958;50.892;3.992;2023-10-09T11:21:01;22.10;99.90
21592;DHT22;10958;50.892;3.992;2023-10-09T11:23:38;22.20;99.90
21592;DHT22;10958;50.892;3.992;2023-10-09T11:26:19;22.10;99.90
21592;DHT22;10958;50.892;3.992;2023-10-09T11:29:12;22.00;99.90
21592;DHT22;10958;50.892;3.992;2023-10-09T11:32:02;22.10;99.90
21592;DHT22;10958;50.892;3.992;2023-10-09T11:34:32;21.80;99.90
21592;DHT22;10958;50.892;3.992;2023-10-09T11:37:12;22.10;99.90
21592;DHT22;10958;50.892;3.992;2023-10-09T11:39:39;22.50;99.90
21592;DHT22;10958;50.892;3.992;2023-10-09T11:42:25;22.70;99.90
21592;DHT22;10958;50.892;3.992;2023-10-09T11:45:25;22.70;99.90
21592;DHT22;10958;50.892;3.992;2023-10-09T11:47:58;22.70;99.90
21592;DHT22;10958;50.892;3.992;2023-10-09T11:50:43;22.60;99.90
21592;DHT22;10958;50.892;3.992;2023-10-09T11:53:16;22.80;99.90
21592;DHT22;10958;50.892;3.992;2023-10-09T11:58:55;22.80;99.90
21592;DHT22;10958;50.892;3.992;2023-10-09T12:01:27;22.60;99.90
21592;DHT22;10958;50.892;3.992;2023-10-09T12:04:02;22.70;99.90
21592;DHT22;10958;50.892;3.992;2023-10-09T12:06:33;22.90;99.90
21592;DHT22;10958;50.892;3.992;2023-10-09T12:09:00;23.20;99.90
21592;DHT22;10958;50.892;3.992;2023-10-09T12:11:38;23.30;99.90
21592;DHT22;10958;50.892;3.992;2023-10-09T12:14:18;23.30;99.90
21592;DHT22;10958;50.892;3.992;2023-10-09T12:16:49;23.40;99.90
21592;DHT22;10958;50.892;3.992;2023-10-09T12:19:19;23.50;99.90
21592;DHT22;10958;50.892;3.992;2023-10-09T12:21:44;23.50;99.90
21592;DHT22;10958;50.892;3.992;2023-10-09T12:24:10;23.60;99.90
21592;DHT22;10958;50.892;3.992;2023-10-09T12:26:38;23.60;99.90
21592;DHT22;10958;50.892;3.992;2023-10-09T12:29:06;23.80;99.90
21592;DHT22;10958;50.892;3.992;2023-10-09T12:31:37;23.80;99.90
21592;DHT22;10958;50.892;3.992;2023-10-09T12:34:03;23.60;99.90
21592;DHT22;10958;50.892;3.992;2023-10-09T12:36:31;23.50;99.90
21592;DHT22;10958;50.892;3.992;2023-10-09T12:39:03;23.20;99.90
21592;DHT22;10958;50.892;3.992;2023-10-09T12:41:29;23.00;99.90
21592;DHT22;10958;50.892;3.992;2023-10-09T12:43:59;23.10;99.90
21592;DHT22;10958;50.892;3.992;2023-10-09T12:46:26;23.00;99.90
21592;DHT22;10958;50.892;3.992;2023-10-09T12:48:52;23.00;99.90
21592;DHT22;10958;50.892;3.992;2023-10-09T12:51:21;23.10;99.90
21592;DHT22;10958;50.892;3.992;2023-10-09T12:53:51;23.30;99.90
21592;DHT22;10958;50.892;3.992;2023-10-09T12:56:26;23.40;99.90
21592;DHT22;10958;50.892;3.992;2023-10-09T12:59:00;23.40;99.90
21592;DHT22;10958;50.892;3.992;2023-10-09T13:01:27;23.40;99.90
21592;DHT22;10958;50.892;3.992;2023-10-09T13:04:12;23.50;99.90
21592;DHT22;10958;50.892;3.992;2023-10-09T13:06:44;23.50;99.90
21592;DHT22;10958;50.892;3.992;2023-10-09T13:09:11;23.40;99.90
21592;DHT22;10958;50.892;3.992;2023-10-09T13:11:39;23.20;99.90
21592;DHT22;10958;50.892;3.992;2023-10-09T13:14:06;23.30;99.90
21592;DHT22;10958;50.892;3.992;2023-10-09T13:16:48;23.50;99.90
21592;DHT22;10958;50.892;3.992;2023-10-09T13:19:16;23.40;99.90
21592;DHT22;10958;50.892;3.992;2023-10-09T13:21:43;23.10;99.90
21592;DHT22;10958;50.892;3.992;2023-10-09T13:24:09;22.80;99.90
21592;DHT22;10958;50.892;3.992;2023-10-09T13:26:39;22.80;99.90
21592;DHT22;10958;50.892;3.992;2023-10-09T13:29:07;22.80;99.90
21592;DHT22;10958;50.892;3.992;2023-10-09T13:31:37;23.00;99.90
21592;DHT22;10958;50.892;3.992;2023-10-09T13:34:04;23.20;99.90
21592;DHT22;10958;50.892;3.992;2023-10-09T13:36:35;23.40;99.90
21592;DHT22;10958;50.892;3.992;2023-10-09T13:39:08;22.90;99.90
21592;DHT22;10958;50.892;3.992;2023-10-09T13:41:59;22.60;99.90
21592;DHT22;10958;50.892;3.992;2023-10-09T13:44:33;22.60;99.90
21592;DHT22;10958;50.892;3.992;2023-10-09T13:47:03;22.60;99.90
21592;DHT22;10958;50.892;3.992;2023-10-09T13:49:31;22.60;99.90
21592;DHT22;10958;50.892;3.992;2023-10-09T13:51:58;22.80;99.90
21592;DHT22;10958;50.892;3.992;2023-10-09T13:54:24;22.90;99.90
21592;DHT22;10958;50.892;3.992;2023-10-09T13:56:59;23.00;99.90
21592;DHT22;10958;50.892;3.992;2023-10-09T13:59:25;23.00;99.90
21592;DHT22;10958;50.892;3.992;2023-10-09T14:01:54;22.80;99.90
21592;DHT22;10958;50.892;3.992;2023-10-09T14:04:21;22.70;99.90
21592;DHT22;10958;50.892;3.992;2023-10-09T14:06:49;22.80;99.90
21592;DHT22;10958;50.892;3.992;2023-10-09T14:09:17;22.70;99.90
21592;DHT22;10958;50.892;3.992;2023-10-09T14:12:15;22.70;99.90
21592;DHT22;10958;50.892;3.992;2023-10-09T14:14:45;22.90;99.90
21592;DHT22;10958;50.892;3.992;2023-10-09T14:17:16;23.00;99.90
21592;DHT22;10958;50.892;3.992;2023-10-09T14:19:48;22.80;99.90
21592;DHT22;10958;50.892;3.992;2023-10-09T14:22:14;22.80;99.90
21592;DHT22;10958;50.892;3.992;2023-10-09T14:24:44;23.10;99.90
21592;DHT22;10958;50.892;3.992;2023-10-09T14:27:14;23.30;99.90
21592;DHT22;10958;50.892;3.992;2023-10-09T14:29:47;23.40;99.90
21592;DHT22;10958;50.892;3.992;2023-10-09T14:32:13;23.50;99.90
21592;DHT22;10958;50.892;3.992;2023-10-09T14:34:43;23.60;99.90
21592;DHT22;10958;50.892;3.992;2023-10-09T14:37:15;23.80;99.90
21592;DHT22;10958;50.892;3.992;2023-10-09T14:39:44;23.70;99.90
21592;DHT22;10958;50.892;3.992;2023-10-09T14:42:14;23.60;99.90
21592;DHT22;10958;50.892;3.992;2023-10-09T14:44:40;23.20;99.90
21592;DHT22;10958;50.892;3.992;2023-10-09T14:47:07;23.30;99.90
21592;DHT22;10958;50.892;3.992;2023-10-09T14:49:34;23.30;99.90
21592;DHT22;10958;50.892;3.992;2023-10-09T14:52:05;23.50;99.90
21592;DHT22;10958;50.892;3.992;2023-10-09T14:54:36;23.70;99.90
21592;DHT22;10958;50.892;3.992;2023-10-09T14:57:04;23.90;99.90
21592;DHT22;10958;50.892;3.992;2023-10-09T14:59:33;23.80;99.90
21592;DHT22;10958;50.892;3.992;2023-10-09T15:02:01;23.90;99.90
21592;DHT22;10958;50.892;3.992;2023-10-09T15:04:27;23.90;99.90
21592;DHT22;10958;50.892;3.992;2023-10-09T15:06:53;23.50;99.90
21592;DHT22;10958;50.892;3.992;2023-10-09T15:09:19;23.30;99.90
21592;DHT22;10958;50.892;3.992;2023-10-09T15:11:47;23.30;99.90
21592;DHT22;10958;50.892;3.992;2023-10-09T15:14:17;23.20;99.90
21592;DHT22;10958;50.892;3.992;2023-10-09T15:16:46;23.30;99.90
21592;DHT22;10958;50.892;3.992;2023-10-09T15:19:14;23.40;99.90
21592;DHT22;10958;50.892;3.992;2023-10-09T15:21:42;23.50;99.90
21592;DHT22;10958;50.892;3.992;2023-10-09T15:24:15;23.40;99.90
21592;DHT22;10958;50.892;3.992;2023-10-09T15:26:45;23.60;99.90
21592;DHT22;10958;50.892;3.992;2023-10-09T15:29:18;23.80;99.90
21592;DHT22;10958;50.892;3.992;2023-10-09T15:31:49;23.60;99.90
21592;DHT22;10958;50.892;3.992;2023-10-09T15:34:18;23.20;99.90
21592;DHT22;10958;50.892;3.992;2023-10-09T15:36:47;22.90;99.90
21592;DHT22;10958;50.892;3.992;2023-10-09T15:39:13;22.60;99.90
21592;DHT22;10958;50.892;3.992;2023-10-09T15:41:39;22.40;99.90
21592;DHT22;10958;50.892;3.992;2023-10-09T15:44:05;22.30;99.90
21592;DHT22;10958;50.892;3.992;2023-10-09T15:46:31;22.50;99.90
21592;DHT22;10958;50.892;3.992;2023-10-09T15:49:00;22.70;99.90
21592;DHT22;10958;50.892;3.992;2023-10-09T15:51:30;23.00;99.90
21592;DHT22;10958;50.892;3.992;2023-10-09T15:53:56;23.10;99.90
21592;DHT22;10958;50.892;3.992;2023-10-09T15:56:24;23.20;99.90
21592;DHT22;10958;50.892;3.992;2023-10-09T15:58:51;23.10;99.90
21592;DHT22;10958;50.892;3.992;2023-10-09T16:01:22;23.00;99.90
21592;DHT22;10958;50.892;3.992;2023-10-09T16:03:48;23.00;99.90
21592;DHT22;10958;50.892;3.992;2023-10-09T16:06:16;23.00;99.90
21592;DHT22;10958;50.892;3.992;2023-10-09T16:08:43;22.90;99.90
21592;DHT22;10958;50.892;3.992;2023-10-09T16:11:11;22.60;99.90
21592;DHT22;10958;50.892;3.992;2023-10-09T16:13:38;22.30;99.90
21592;DHT22;10958;50.892;3.992;2023-10-09T16:16:05;22.00;99.90
21592;DHT22;10958;50.892;3.992;2023-10-09T16:18:34;22.10;99.90
21592;DHT22;10958;50.892;3.992;2023-10-09T16:21:01;21.90;99.90
21592;DHT22;10958;50.892;3.992;2023-10-09T16:23:31;22.20;99.90
21592;DHT22;10958;50.892;3.992;2023-10-09T16:25:57;22.20;99.90
21592;DHT22;10958;50.892;3.992;2023-10-09T16:28:26;22.20;99.90
21592;DHT22;10958;50.892;3.992;2023-10-09T16:30:52;22.30;99.90